Time;durP1;ratioP1;P1;durP2;ratioP2;P2;SDS_P1;SDS_P2;PMS_P1;PMS_P2;Temp;Humidity;BMP_temperature;BMP_pressure;BME280_temperature;BME280_humidity;BME280_pressure;Samples;Min_cycle;Max_cycle;Signal;HPM_P1;HPM_P2
2021/11/30 00:01:08;;;;;;;1.42;1.33;;;8.10;96.60;;;;;;5020206;28;20037;-47
2021/11/30 00:03:35;;;;;;;3.47;1.90;;;8.10;96.60;;;;;;5018657;28;20026;-48
2021/11/30 00:06:01;;;;;;;5.43;2.00;;;8.10;96.60;;;;;;5018544;28;20049;-48
2021/11/30 00:08:32;;;;;;;3.65;1.85;;;8.10;96.50;;;;;;5021980;28;20025;-48
2021/11/30 00:10:59;;;;;;;2.63;1.83;;;8.10;96.60;;;;;;5013963;28;20449;-48
2021/11/30 00:13:26;;;;;;;2.17;1.63;;;8.10;96.60;;;;;;5019842;28;20037;-48
2021/11/30 00:15:54;;;;;;;3.45;1.92;;;8.00;96.60;;;;;;5019828;28;20041;-47
2021/11/30 00:18:20;;;;;;;7.97;1.98;;;8.10;96.60;;;;;;5019434;28;20040;-48
2021/11/30 00:20:46;;;;;;;2.55;1.45;;;8.10;96.60;;;;;;5021424;28;20021;-47
2021/11/30 00:23:14;;;;;;;1.95;1.67;;;8.10;96.60;;;;;;5017924;28;20029;-48
2021/11/30 00:25:40;;;;;;;0.82;0.77;;;8.00;96.50;;;;;;5016867;28;20026;-48
2021/11/30 00:28:06;;;;;;;2.33;1.42;;;8.10;96.60;;;;;;5018392;28;20441;-48
2021/11/30 00:30:32;;;;;;;1.33;1.23;;;8.10;96.60;;;;;;5019403;28;20029;-48
2021/11/30 00:32:59;;;;;;;1.95;1.48;;;8.00;96.50;;;;;;5013851;28;20038;-48
2021/11/30 00:35:25;;;;;;;2.35;1.40;;;8.10;96.50;;;;;;5019525;28;20021;-48
2021/11/30 00:37:52;;;;;;;2.80;1.65;;;8.10;96.60;;;;;;5018784;28;20380;-47
2021/11/30 00:40:18;;;;;;;3.05;1.73;;;8.10;96.60;;;;;;5020290;28;20022;-48
2021/11/30 00:42:44;;;;;;;3.42;1.85;;;8.10;96.60;;;;;;5014751;28;20034;-47
2021/11/30 00:45:14;;;;;;;2.38;1.55;;;8.10;96.60;;;;;;5017903;28;20053;-48
2021/11/30 00:47:49;;;;;;;3.28;1.48;;;8.10;96.50;;;;;;5020592;28;20040;-48
2021/11/30 00:50:15;;;;;;;9.15;1.83;;;8.10;96.60;;;;;;5018459;28;20037;-47
2021/11/30 00:52:40;;;;;;;3.65;1.40;;;8.10;96.70;;;;;;5018950;28;20329;-47
2021/11/30 00:55:06;;;;;;;2.47;1.67;;;8.00;96.50;;;;;;5017554;28;20084;-47
2021/11/30 00:57:32;;;;;;;0.82;0.82;;;8.10;96.60;;;;;;5016326;28;20034;-48
2021/11/30 00:59:58;;;;;;;1.30;1.20;;;8.10;96.60;;;;;;5019992;28;20041;-48
2021/11/30 01:02:23;;;;;;;1.75;1.45;;;8.10;96.70;;;;;;5024250;28;20018;-47
2021/11/30 01:04:49;;;;;;;3.65;1.70;;;8.10;96.60;;;;;;5021733;28;20048;-47
2021/11/30 01:07:15;;;;;;;2.17;1.38;;;8.10;96.70;;;;;;5017651;28;20038;-47
2021/11/30 01:09:42;;;;;;;1.85;1.58;;;8.10;96.70;;;;;;5025505;28;20025;-47
2021/11/30 01:12:10;;;;;;;1.80;1.42;;;8.00;96.70;;;;;;5019556;28;20038;-47
2021/11/30 01:14:36;;;;;;;1.92;1.10;;;8.10;96.80;;;;;;5019088;28;20038;-47
2021/11/30 01:17:02;;;;;;;1.55;0.95;;;8.10;96.80;;;;;;5021169;28;20032;-48
2021/11/30 01:19:27;;;;;;;1.80;1.38;;;8.10;96.70;;;;;;5023494;28;20034;-47
2021/11/30 01:21:53;;;;;;;3.13;1.55;;;8.10;96.70;;;;;;5020078;28;20029;-47
2021/11/30 01:24:19;;;;;;;3.28;1.80;;;8.10;96.70;;;;;;5024282;28;20449;-47
2021/11/30 01:26:45;;;;;;;2.05;1.40;;;8.10;96.80;;;;;;5019350;28;20437;-47
2021/11/30 01:29:11;;;;;;;2.53;1.02;;;8.10;96.80;;;;;;5025007;28;20704;-47
2021/11/30 01:31:36;;;;;;;2.58;1.33;;;8.00;96.60;;;;;;5022375;28;20033;-47
2021/11/30 01:34:02;;;;;;;3.10;1.42;;;8.10;96.80;;;;;;5021296;28;20124;-47
2021/11/30 01:36:29;;;;;;;2.65;1.75;;;8.00;96.80;;;;;;5022360;28;20033;-48
2021/11/30 01:38:55;;;;;;;3.35;1.60;;;8.00;96.80;;;;;;5023279;28;20063;-48
2021/11/30 01:41:21;;;;;;;1.73;1.23;;;8.10;96.70;;;;;;5023398;28;20456;-48
2021/11/30 01:43:48;;;;;;;3.55;1.85;;;8.10;96.80;;;;;;5018427;28;20044;-48
2021/11/30 01:46:40;;;;;;;6.00;1.27;;;8.10;96.80;;;;;;5020057;28;20053;-48
2021/11/30 01:49:18;;;;;;;2.83;1.60;;;8.10;96.70;;;;;;5021230;28;20045;-48
2021/11/30 01:51:43;;;;;;;2.08;1.25;;;8.10;96.80;;;;;;5022549;28;20403;-48
2021/11/30 01:54:09;;;;;;;1.40;0.90;;;8.10;96.80;;;;;;5019460;28;20133;-48
2021/11/30 01:56:35;;;;;;;1.83;0.80;;;8.10;96.90;;;;;;5017399;28;20465;-48
2021/11/30 01:59:00;;;;;;;0.93;0.85;;;8.10;96.80;;;;;;5020125;28;20044;-48
2021/11/30 02:01:26;;;;;;;1.23;0.90;;;8.00;97.10;;;;;;5024963;28;20498;-48
2021/11/30 02:03:52;;;;;;;0.73;0.70;;;8.10;96.80;;;;;;5021818;28;20053;-48
2021/11/30 02:06:17;;;;;;;1.33;0.90;;;8.00;96.80;;;;;;5018687;28;20036;-48
2021/11/30 02:08:43;;;;;;;1.00;0.70;;;8.00;96.90;;;;;;5023820;28;20440;-47
2021/11/30 02:11:09;;;;;;;0.60;0.60;;;8.10;96.90;;;;;;5019641;28;20022;-48
2021/11/30 02:13:34;;;;;;;0.60;0.60;;;8.10;96.90;;;;;;5018542;28;20049;-48
2021/11/30 02:16:02;;;;;;;0.73;0.73;;;8.00;96.90;;;;;;5017666;28;20030;-48
2021/11/30 02:18:28;;;;;;;0.63;0.63;;;8.00;96.80;;;;;;5021151;28;20508;-47
2021/11/30 02:21:01;;;;;;;1.65;0.60;;;8.00;96.80;;;;;;5024652;28;20025;-47
2021/11/30 02:23:46;;;;;;;0.88;0.70;;;8.00;96.90;;;;;;5019149;28;20034;-47
2021/11/30 02:26:14;;;;;;;2.08;0.90;;;8.10;96.90;;;;;;5019946;28;20117;-48
2021/11/30 02:28:43;;;;;;;2.55;0.68;;;8.10;96.90;;;;;;5018049;28;20033;-47
2021/11/30 02:31:11;;;;;;;1.67;1.02;;;8.10;96.90;;;;;;5021914;28;20520;-48
2021/11/30 02:33:38;;;;;;;0.82;0.82;;;8.00;96.90;;;;;;5018475;28;20037;-47
2021/11/30 02:36:15;;;;;;;0.82;0.82;;;8.10;96.90;;;;;;5022989;28;20037;-47
2021/11/30 02:38:40;;;;;;;1.38;0.88;;;8.00;96.90;;;;;;5022215;28;20033;-48
2021/11/30 02:41:06;;;;;;;2.20;0.77;;;8.00;96.90;;;;;;5021951;28;20333;-48
2021/11/30 02:43:31;;;;;;;1.52;1.00;;;8.10;96.90;;;;;;5013500;28;20040;-47
2021/11/30 02:45:57;;;;;;;1.75;1.27;;;8.10;96.90;;;;;;5022782;28;20037;-47
2021/11/30 02:48:22;;;;;;;1.20;1.00;;;8.00;96.90;;;;;;5016808;28;20113;-47
2021/11/30 02:50:49;;;;;;;2.67;0.80;;;8.00;96.90;;;;;;5023844;28;20116;-48
2021/11/30 02:53:21;;;;;;;0.95;0.95;;;8.00;96.80;;;;;;5020538;28;20081;-47
2021/11/30 02:55:47;;;;;;;2.13;0.80;;;8.00;96.90;;;;;;5019509;28;20048;-47
2021/11/30 02:58:13;;;;;;;2.42;0.93;;;8.00;96.90;;;;;;5018109;28;20083;-48
2021/11/30 03:00:39;;;;;;;0.80;0.77;;;8.00;96.80;;;;;;5022943;28;20452;-47
2021/11/30 03:03:04;;;;;;;0.85;0.75;;;8.00;96.90;;;;;;5020301;28;20088;-47
2021/11/30 03:05:30;;;;;;;4.38;0.98;;;8.00;96.90;;;;;;5020894;28;20057;-47
2021/11/30 03:07:56;;;;;;;1.25;1.00;;;8.00;96.90;;;;;;5020264;28;20444;-48
2021/11/30 03:10:21;;;;;;;1.08;0.70;;;8.00;96.80;;;;;;5022885;28;20021;-47
2021/11/30 03:12:50;;;;;;;1.85;0.70;;;8.00;96.80;;;;;;5018365;28;20508;-47
2021/11/30 03:15:18;;;;;;;1.10;0.73;;;8.00;96.90;;;;;;5017456;28;20084;-47
2021/11/30 03:17:45;;;;;;;0.82;0.73;;;8.00;96.90;;;;;;5019295;28;20453;-48
2021/11/30 03:20:11;;;;;;;0.75;0.75;;;8.00;96.80;;;;;;5023313;28;20029;-47
2021/11/30 03:22:38;;;;;;;2.10;0.70;;;8.00;96.80;;;;;;5022912;28;20033;-47
2021/11/30 03:25:05;;;;;;;1.42;0.77;;;8.00;96.80;;;;;;5018764;28;20030;-47
2021/11/30 03:27:30;;;;;;;0.40;0.40;;;8.00;96.80;;;;;;5016800;28;20357;-47
2021/11/30 03:29:56;;;;;;;1.85;1.13;;;8.00;96.70;;;;;;5017622;28;20018;-47
2021/11/30 03:35:08;;;;;;;0.80;0.80;;;8.00;96.80;;;;;;5018586;28;20097;-48
2021/11/30 03:37:34;;;;;;;2.13;1.10;;;8.00;96.70;;;;;;5021417;28;20053;-48
2021/11/30 03:40:00;;;;;;;0.70;0.70;;;8.00;96.80;;;;;;5022082;28;20029;-48
2021/11/30 03:42:26;;;;;;;1.85;0.95;;;8.00;96.80;;;;;;5016208;28;20108;-48
2021/11/30 03:44:53;;;;;;;2.30;0.80;;;8.00;96.80;;;;;;5017081;28;20544;-47
2021/11/30 03:47:19;;;;;;;2.22;1.15;;;8.00;96.80;;;;;;5010607;28;20068;-47
2021/11/30 03:49:44;;;;;;;2.30;1.17;;;8.00;96.80;;;;;;5019339;28;20061;-48
2021/11/30 03:52:11;;;;;;;3.88;1.00;;;8.00;96.80;;;;;;5017590;28;20502;-47
2021/11/30 03:54:36;;;;;;;1.10;1.00;;;8.00;96.70;;;;;;5021124;28;20042;-47
2021/11/30 03:57:04;;;;;;;2.40;0.90;;;8.00;96.70;;;;;;5020671;28;20027;-48
2021/11/30 03:59:30;;;;;;;1.13;0.60;;;8.00;96.70;;;;;;5018875;28;20045;-47
2021/11/30 04:01:55;;;;;;;0.50;0.50;;;8.00;96.70;;;;;;5019957;28;20445;-48
2021/11/30 04:04:23;;;;;;;4.13;1.02;;;8.00;96.70;;;;;;5018869;28;20436;-48
2021/11/30 04:06:50;;;;;;;1.15;0.90;;;8.00;96.90;;;;;;5021699;28;20083;-47
2021/11/30 04:09:17;;;;;;;3.10;0.98;;;8.00;96.70;;;;;;5020239;28;20454;-48
2021/11/30 04:11:43;;;;;;;1.90;0.85;;;8.00;96.60;;;;;;5021801;28;20434;-47
2021/11/30 04:14:09;;;;;;;2.63;1.17;;;8.00;96.70;;;;;;5017247;28;20519;-48
2021/11/30 04:16:35;;;;;;;0.98;0.98;;;8.00;96.60;;;;;;5020988;28;20112;-48
2021/11/30 04:19:00;;;;;;;3.50;1.05;;;8.00;96.60;;;;;;5019024;28;20045;-47
2021/11/30 04:21:26;;;;;;;2.33;1.50;;;8.00;96.60;;;;;;5022444;28;20021;-48
2021/11/30 04:23:53;;;;;;;1.38;0.90;;;8.00;96.60;;;;;;5016757;28;20112;-48
2021/11/30 04:26:19;;;;;;;2.40;1.05;;;8.00;96.60;;;;;;5018949;28;20475;-47
2021/11/30 04:28:46;;;;;;;1.02;0.93;;;8.00;96.60;;;;;;5014710;28;20065;-48
2021/11/30 04:31:12;;;;;;;2.10;0.80;;;8.00;96.50;;;;;;5016238;28;20120;-48
2021/11/30 04:33:37;;;;;;;1.45;0.90;;;8.00;96.60;;;;;;5020266;28;20032;-48
2021/11/30 04:36:06;;;;;;;1.60;0.77;;;8.00;96.50;;;;;;5020215;28;20026;-48
2021/11/30 04:38:35;;;;;;;0.68;0.68;;;7.90;96.50;;;;;;5026759;28;20018;-47
2021/11/30 04:41:02;;;;;;;2.35;1.02;;;8.00;96.50;;;;;;5020468;28;20105;-47
2021/11/30 04:43:36;;;;;;;0.35;0.35;;;8.00;96.60;;;;;;5019588;28;20382;-48
2021/11/30 04:46:10;;;;;;;1.52;1.02;;;8.00;96.40;;;;;;5024997;28;20013;-47
2021/11/30 04:48:36;;;;;;;0.40;0.40;;;8.00;96.40;;;;;;5019823;28;20033;-48
2021/11/30 04:51:03;;;;;;;0.93;0.93;;;8.00;96.40;;;;;;5024154;28;20017;-48
2021/11/30 04:53:31;;;;;;;0.90;0.85;;;8.00;96.50;;;;;;5021893;28;20029;-48
2021/11/30 04:55:56;;;;;;;0.38;0.38;;;8.00;96.50;;;;;;5024525;28;20063;-47
2021/11/30 04:58:22;;;;;;;2.15;1.02;;;7.90;96.40;;;;;;5019540;28;20068;-48
2021/11/30 05:00:48;;;;;;;0.60;0.60;;;8.00;96.50;;;;;;5026065;28;20343;-47
2021/11/30 05:03:15;;;;;;;1.08;1.05;;;7.90;96.40;;;;;;5019543;28;20037;-48
2021/11/30 05:05:41;;;;;;;0.68;0.68;;;7.90;96.40;;;;;;5024375;28;20040;-48
2021/11/30 05:08:08;;;;;;;0.60;0.57;;;7.90;96.40;;;;;;5023626;28;20092;-48
2021/11/30 05:10:34;;;;;;;0.60;0.60;;;7.90;96.30;;;;;;5024279;28;20026;-48
2021/11/30 05:13:01;;;;;;;0.55;0.55;;;7.90;96.30;;;;;;5022466;28;20032;-48
2021/11/30 05:15:28;;;;;;;1.50;1.15;;;7.90;96.30;;;;;;5020811;28;20331;-48
2021/11/30 05:17:54;;;;;;;0.63;0.63;;;7.90;96.30;;;;;;5025572;28;20045;-47
2021/11/30 05:20:19;;;;;;;0.65;0.65;;;7.90;96.30;;;;;;5022963;28;20037;-48
2021/11/30 05:22:45;;;;;;;1.30;1.00;;;7.90;96.30;;;;;;5021862;28;20437;-48
2021/11/30 05:25:11;;;;;;;2.00;1.10;;;7.90;96.30;;;;;;5022505;28;20064;-47
2021/11/30 05:27:41;;;;;;;1.33;0.73;;;7.90;96.20;;;;;;5023455;28;20036;-48
2021/11/30 05:30:13;;;;;;;;;;;7.90;96.20;;;;;;5021464;28;20076;-48
2021/11/30 05:32:40;;;;;;;0.75;0.75;;;7.90;96.30;;;;;;5017589;28;19909;-47
2021/11/30 05:35:06;;;;;;;1.17;0.80;;;7.90;96.30;;;;;;5023649;28;20519;-47
2021/11/30 05:37:31;;;;;;;1.45;0.90;;;7.90;96.20;;;;;;5022198;28;20397;-47
2021/11/30 05:39:57;;;;;;;1.63;1.27;;;7.90;96.20;;;;;;5019614;28;20576;-47
2021/11/30 05:42:22;;;;;;;0.52;0.52;;;7.90;96.30;;;;;;5023640;28;20048;-47
2021/11/30 05:44:48;;;;;;;6.32;0.90;;;7.90;96.20;;;;;;5018120;28;20066;-48
2021/11/30 05:47:13;;;;;;;0.45;0.40;;;7.90;96.20;;;;;;5022265;28;20088;-47
2021/11/30 05:49:39;;;;;;;1.23;0.70;;;7.90;96.20;;;;;;5019322;28;20393;-48
2021/11/30 05:52:05;;;;;;;0.65;0.65;;;7.90;96.20;;;;;;5021325;28;20022;-48
2021/11/30 05:54:30;;;;;;;0.35;0.35;;;7.90;96.10;;;;;;5024602;28;20041;-48
2021/11/30 05:56:56;;;;;;;0.47;0.47;;;7.90;96.10;;;;;;5021716;28;20029;-48
2021/11/30 05:59:22;;;;;;;1.20;0.95;;;7.90;96.10;;;;;;5017113;28;20057;-48
2021/11/30 06:01:48;;;;;;;1.80;0.77;;;7.90;96.00;;;;;;5023354;28;20022;-48
2021/11/30 06:04:13;;;;;;;0.80;0.80;;;7.90;96.10;;;;;;5017687;28;20021;-47
2021/11/30 06:06:39;;;;;;;0.85;0.85;;;7.90;96.00;;;;;;5017517;28;20066;-47
2021/11/30 06:09:07;;;;;;;2.15;1.27;;;7.90;96.00;;;;;;5019039;28;20087;-47
2021/11/30 06:11:33;;;;;;;2.72;0.98;;;7.90;96.00;;;;;;5021092;28;20532;-48
2021/11/30 06:13:59;;;;;;;4.75;1.02;;;7.90;96.00;;;;;;5022045;28;20042;-48
2021/11/30 06:16:24;;;;;;;1.60;0.75;;;7.90;96.00;;;;;;5021249;28;20260;-48
2021/11/30 06:18:50;;;;;;;0.68;0.65;;;7.90;96.00;;;;;;5020474;28;20128;-48
2021/11/30 06:21:17;;;;;;;1.27;1.17;;;7.90;96.10;;;;;;5022786;28;20034;-48
2021/11/30 06:23:43;;;;;;;0.95;0.93;;;7.90;96.30;;;;;;5018730;28;20477;-48
2021/11/30 06:26:10;;;;;;;2.55;1.15;;;7.90;96.00;;;;;;5023825;28;20105;-47
2021/11/30 06:28:36;;;;;;;0.32;0.32;;;7.90;96.00;;;;;;5019471;28;20361;-47
2021/11/30 06:31:03;;;;;;;1.35;0.60;;;7.90;95.90;;;;;;5023858;28;20444;-47
2021/11/30 06:33:29;;;;;;;2.25;1.13;;;7.90;96.00;;;;;;5019699;28;20029;-48
2021/11/30 06:35:55;;;;;;;0.40;0.40;;;7.90;95.90;;;;;;5022126;28;20684;-48
2021/11/30 06:38:20;;;;;;;2.53;1.30;;;7.90;95.90;;;;;;5020540;28;20107;-47
2021/11/30 06:40:46;;;;;;;9.25;1.52;;;7.90;95.90;;;;;;5021570;28;20021;-48
2021/11/30 06:43:12;;;;;;;0.35;0.35;;;7.90;95.90;;;;;;5018138;28;20071;-47
2021/11/30 06:45:37;;;;;;;0.50;0.50;;;7.90;95.80;;;;;;5020978;28;20445;-48
2021/11/30 06:48:03;;;;;;;0.57;0.57;;;7.90;95.80;;;;;;5019232;28;20050;-48
2021/11/30 06:50:29;;;;;;;0.45;0.45;;;7.90;95.80;;;;;;5021502;28;20064;-47
2021/11/30 06:52:55;;;;;;;1.50;1.00;;;7.90;95.80;;;;;;5017468;28;20453;-48
2021/11/30 06:55:21;;;;;;;0.68;0.68;;;7.90;95.80;;;;;;5021381;28;20053;-48
2021/11/30 06:57:46;;;;;;;0.30;0.30;;;7.90;95.80;;;;;;5030113;28;20029;-49
2021/11/30 07:00:14;;;;;;;0.45;0.45;;;7.90;95.80;;;;;;5025805;28;20025;-48
2021/11/30 07:02:41;;;;;;;0.57;0.57;;;7.90;95.10;;;;;;5020923;28;20373;-48
2021/11/30 07:05:17;;;;;;;0.50;0.50;;;7.90;95.00;;;;;;5021645;28;20025;-48
2021/11/30 07:10:53;;;;;;;0.30;0.30;;;7.90;94.80;;;;;;4931244;29;20040;-48
2021/11/30 07:13:22;;;;;;;0.40;0.40;;;7.90;94.80;;;;;;4924721;29;20534;-48
2021/11/30 07:15:57;;;;;;;0.82;0.82;;;7.90;94.90;;;;;;4928496;29;20621;-48
2021/11/30 07:18:24;;;;;;;3.90;0.50;;;7.90;94.90;;;;;;4930320;29;20089;-47
2021/11/30 07:20:50;;;;;;;1.77;0.88;;;7.80;94.90;;;;;;4932977;29;20027;-47
2021/11/30 07:23:17;;;;;;;1.40;1.27;;;7.90;94.90;;;;;;4927285;29;20118;-48
2021/11/30 07:25:43;;;;;;;1.35;0.40;;;7.90;94.80;;;;;;4931065;29;20028;-48
2021/11/30 07:28:09;;;;;;;1.65;0.90;;;7.90;94.80;;;;;;4931119;29;20032;-48
2021/11/30 07:30:36;;;;;;;0.73;0.73;;;7.90;94.90;;;;;;4932147;29;20528;-48
2021/11/30 07:33:02;;;;;;;0.40;0.40;;;7.90;94.90;;;;;;4934560;29;20094;-47
2021/11/30 07:35:29;;;;;;;1.42;0.75;;;7.80;94.90;;;;;;4933502;29;20095;-48
2021/11/30 07:37:55;;;;;;;0.43;0.40;;;7.90;94.90;;;;;;4932708;29;20114;-47
2021/11/30 07:40:21;;;;;;;0.63;0.50;;;7.90;95.10;;;;;;4932677;29;20522;-48
2021/11/30 07:42:47;;;;;;;0.45;0.45;;;7.90;94.80;;;;;;5031596;28;20517;-48
2021/11/30 07:45:14;;;;;;;0.40;0.40;;;7.80;94.90;;;;;;5025544;28;20024;-47
2021/11/30 07:47:39;;;;;;;2.35;1.58;;;7.80;95.00;;;;;;5025235;28;20356;-47
2021/11/30 07:50:06;;;;;;;0.57;0.57;;;7.80;95.00;;;;;;5027027;28;20524;-48
2021/11/30 07:52:36;;;;;;;0.35;0.35;;;7.90;95.00;;;;;;5033575;28;20040;-48
2021/11/30 07:55:06;;;;;;;;;;;7.80;95.00;;;;;;5024676;28;20045;-48
2021/11/30 07:57:32;;;;;;;2.65;1.30;;;7.80;95.00;;;;;;5026053;28;19909;-48
2021/11/30 07:59:58;;;;;;;1.67;0.55;;;7.80;95.40;;;;;;5023757;28;20029;-48
2021/11/30 08:02:25;;;;;;;1.58;0.85;;;7.90;95.10;;;;;;5031653;28;20542;-48
2021/11/30 08:04:51;;;;;;;1.15;0.50;;;7.80;95.00;;;;;;5028975;28;20091;-48
2021/11/30 08:07:18;;;;;;;0.25;0.25;;;7.90;95.10;;;;;;5026481;28;20026;-48
2021/11/30 08:09:45;;;;;;;1.65;0.95;;;7.80;95.10;;;;;;5028068;28;20029;-48
2021/11/30 08:12:13;;;;;;;0.85;0.85;;;7.80;95.10;;;;;;5030114;28;20056;-48
2021/11/30 08:14:38;;;;;;;1.83;1.23;;;7.90;95.10;;;;;;5023846;28;20090;-48
2021/11/30 08:17:09;;;;;;;1.98;1.00;;;7.80;95.40;;;;;;5022143;28;20045;-48
2021/11/30 08:19:35;;;;;;;0.50;0.50;;;7.80;95.20;;;;;;5020347;28;20444;-47
2021/11/30 08:22:01;;;;;;;0.70;0.70;;;7.80;95.10;;;;;;5022105;28;20020;-48
2021/11/30 08:24:27;;;;;;;2.33;1.77;;;7.80;95.10;;;;;;5019234;28;20022;-48
2021/11/30 08:26:52;;;;;;;2.33;1.38;;;7.80;95.10;;;;;;5018451;28;20112;-48
2021/11/30 08:29:18;;;;;;;0.63;0.63;;;7.80;95.10;;;;;;5020655;28;20045;-47
2021/11/30 08:31:43;;;;;;;4.57;1.10;;;7.80;95.10;;;;;;5030598;28;20060;-48
2021/11/30 08:34:09;;;;;;;1.02;0.93;;;7.80;95.10;;;;;;5029335;28;20065;-48
2021/11/30 08:36:34;;;;;;;1.40;0.77;;;7.80;95.20;;;;;;5025005;28;20034;-48
2021/11/30 08:39:00;;;;;;;1.95;1.38;;;7.90;95.10;;;;;;5030586;28;20081;-48
2021/11/30 08:41:26;;;;;;;0.35;0.35;;;7.80;95.10;;;;;;5026595;28;20025;-48
2021/11/30 08:43:52;;;;;;;0.88;0.60;;;7.90;95.10;;;;;;5030435;28;20021;-48
2021/11/30 08:46:17;;;;;;;0.63;0.63;;;7.80;95.00;;;;;;5028242;28;20030;-48
2021/11/30 08:48:43;;;;;;;1.50;1.33;;;7.80;95.10;;;;;;5025571;28;20329;-48
2021/11/30 08:51:08;;;;;;;0.93;0.88;;;7.80;95.10;;;;;;5028674;28;20037;-48
2021/11/30 08:53:35;;;;;;;0.68;0.68;;;7.80;95.00;;;;;;5029026;28;20033;-48
2021/11/30 08:56:02;;;;;;;3.53;1.95;;;7.80;95.00;;;;;;5024835;28;20037;-48
2021/11/30 08:58:28;;;;;;;2.33;1.42;;;7.80;95.00;;;;;;5019599;28;20026;-48
2021/11/30 09:00:54;;;;;;;0.63;0.45;;;7.80;95.00;;;;;;5026446;28;20041;-48
2021/11/30 09:03:21;;;;;;;3.17;1.25;;;7.80;95.00;;;;;;5025242;28;20030;-48
2021/11/30 09:05:46;;;;;;;1.88;1.05;;;7.80;95.00;;;;;;5016831;28;20033;-47
2021/11/30 09:08:12;;;;;;;0.70;0.70;;;7.90;95.10;;;;;;5020944;28;20033;-48
2021/11/30 09:10:40;;;;;;;1.55;1.10;;;7.80;95.00;;;;;;5034968;28;20136;-48
2021/11/30 09:13:06;;;;;;;2.13;1.23;;;7.90;95.00;;;;;;5028304;28;20029;-47
2021/11/30 09:15:32;;;;;;;2.55;1.05;;;7.80;95.00;;;;;;5019938;28;20022;-48
2021/11/30 09:17:58;;;;;;;0.40;0.40;;;7.90;95.00;;;;;;5028874;28;20033;-48
2021/11/30 09:20:26;;;;;;;0.65;0.65;;;7.90;95.10;;;;;;5030716;28;20026;-48
2021/11/30 09:22:52;;;;;;;1.40;1.30;;;7.80;95.00;;;;;;5030617;28;20029;-48
2021/11/30 09:25:19;;;;;;;2.00;1.05;;;7.90;95.00;;;;;;5025228;28;20034;-48
2021/11/30 09:27:45;;;;;;;1.13;0.90;;;7.90;95.00;;;;;;5038277;28;20284;-48
2021/11/30 09:30:13;;;;;;;0.30;0.30;;;7.90;94.90;;;;;;5026277;28;20038;-48
2021/11/30 09:32:40;;;;;;;1.05;0.95;;;7.80;94.90;;;;;;5024115;28;20533;-48
2021/11/30 09:35:09;;;;;;;1.65;0.55;;;7.80;95.00;;;;;;5028730;28;20057;-47
2021/11/30 09:37:39;;;;;;;3.03;1.30;;;7.80;94.90;;;;;;5029048;28;20035;-47
2021/11/30 09:40:11;;;;;;;0.45;0.45;;;7.80;94.90;;;;;;5026685;28;20100;-47
2021/11/30 09:42:37;;;;;;;0.50;0.50;;;7.90;95.00;;;;;;5026508;28;20030;-47
2021/11/30 09:45:05;;;;;;;4.68;1.13;;;7.90;95.00;;;;;;5028488;28;20440;-47
2021/11/30 09:47:32;;;;;;;1.67;0.73;;;7.90;94.90;;;;;;5027650;28;20147;-47
2021/11/30 09:49:59;;;;;;;1.13;1.02;;;7.90;95.20;;;;;;5031233;28;20029;-47
2021/11/30 09:52:25;;;;;;;1.80;0.60;;;7.90;94.90;;;;;;5018521;28;20022;-47
2021/11/30 09:54:50;;;;;;;0.40;0.40;;;7.90;94.80;;;;;;5020759;28;20036;-47
2021/11/30 09:57:16;;;;;;;0.50;0.50;;;7.90;94.80;;;;;;5020358;28;20050;-47
2021/11/30 09:59:46;;;;;;;1.67;0.93;;;7.90;94.80;;;;;;5022490;28;20037;-47
2021/11/30 10:02:12;;;;;;;2.25;0.50;;;7.90;94.90;;;;;;5016924;28;20082;-48
2021/11/30 10:04:39;;;;;;;0.70;0.70;;;7.90;94.90;;;;;;5019132;28;20443;-47
2021/11/30 10:07:05;;;;;;;1.30;0.70;;;7.90;94.90;;;;;;5019016;28;20029;-48
2021/11/30 10:09:31;;;;;;;1.08;0.90;;;7.90;94.80;;;;;;5018403;28;20400;-47
2021/11/30 10:12:01;;;;;;;0.45;0.45;;;7.90;94.90;;;;;;5019713;28;20442;-47
2021/11/30 10:14:35;;;;;;;3.15;1.60;;;7.90;94.90;;;;;;5020277;28;20058;-47
2021/11/30 10:17:21;;;;;;;1.27;1.05;;;7.90;94.90;;;;;;5017299;28;20526;-47
2021/11/30 10:20:05;;;;;;;0.50;0.50;;;7.90;94.90;;;;;;5017737;28;20040;-48
2021/11/30 10:22:43;;;;;;;1.83;1.20;;;7.90;94.90;;;;;;5022806;28;20568;-47
2021/11/30 10:25:15;;;;;;;0.88;0.88;;;7.90;94.90;;;;;;5023948;28;20116;-47
2021/11/30 10:27:47;;;;;;;3.20;1.17;;;7.90;94.90;;;;;;5027788;28;20333;-47
2021/11/30 10:30:17;;;;;;;0.50;0.50;;;7.80;94.90;;;;;;5025898;28;20025;-47
2021/11/30 10:32:46;;;;;;;1.08;1.02;;;7.90;94.90;;;;;;5027931;28;20356;-48
2021/11/30 10:35:13;;;;;;;1.92;0.98;;;7.90;94.90;;;;;;5015133;28;20483;-47
2021/11/30 10:37:41;;;;;;;0.40;0.40;;;7.90;95.00;;;;;;5019527;28;20034;-47
2021/11/30 10:40:10;;;;;;;0.50;0.50;;;7.80;95.00;;;;;;5022701;28;20113;-47
2021/11/30 10:42:48;;;;;;;0.32;0.32;;;7.90;95.00;;;;;;5039664;28;20016;-47
2021/11/30 10:45:35;;;;;;;2.85;1.02;;;7.90;95.00;;;;;;5031751;28;20029;-47
2021/11/30 10:48:15;;;;;;;0.95;0.95;;;7.90;94.90;;;;;;5020077;28;20030;-48
2021/11/30 10:50:44;;;;;;;1.17;0.80;;;7.90;95.00;;;;;;5026523;28;20033;-47
2021/11/30 10:53:30;;;;;;;0.40;0.40;;;7.90;95.00;;;;;;5030435;28;21459;-48
2021/11/30 10:56:01;;;;;;;0.82;0.82;;;7.90;94.90;;;;;;5022175;28;20038;-47
2021/11/30 10:58:30;;;;;;;0.65;0.65;;;7.90;95.00;;;;;;5019063;28;20052;-47
2021/11/30 11:00:57;;;;;;;0.90;0.90;;;7.90;95.00;;;;;;5031516;28;20104;-47
2021/11/30 11:03:24;;;;;;;1.20;1.10;;;7.90;95.00;;;;;;5030250;28;20045;-47
2021/11/30 11:08:50;;;;;;;0.93;0.70;;;7.90;95.10;;;;;;5024679;28;20080;-47
2021/11/30 11:11:21;;;;;;;0.45;0.45;;;7.80;95.00;;;;;;5027105;28;20043;-47
2021/11/30 11:13:47;;;;;;;2.60;1.33;;;7.90;95.00;;;;;;5029248;28;20056;-47
2021/11/30 11:16:34;;;;;;;0.63;0.63;;;7.90;95.10;;;;;;5003544;28;20113;-47
2021/11/30 11:19:08;;;;;;;0.80;0.70;;;7.90;95.10;;;;;;5026750;28;20152;-47
2021/11/30 11:21:39;;;;;;;2.50;1.15;;;7.90;95.10;;;;;;5027841;28;20451;-47
2021/11/30 11:24:25;;;;;;;0.60;0.60;;;7.90;95.10;;;;;;5024205;28;20116;-47
2021/11/30 11:26:54;;;;;;;0.77;0.50;;;7.90;95.00;;;;;;5028604;28;20025;-47
2021/11/30 11:29:28;;;;;;;1.10;1.00;;;7.90;95.10;;;;;;5029949;28;20026;-47
2021/11/30 11:31:55;;;;;;;0.60;0.60;;;7.90;95.20;;;;;;5018709;28;20484;-47
2021/11/30 11:34:25;;;;;;;0.40;0.40;;;7.90;95.10;;;;;;5024907;28;20523;-47
2021/11/30 11:36:52;;;;;;;7.78;1.55;;;7.90;95.10;;;;;;5030134;28;20025;-47
2021/11/30 11:39:21;;;;;;;1.48;1.10;;;7.90;95.20;;;;;;5033931;28;20033;-48
2021/11/30 11:41:53;;;;;;;2.53;0.70;;;7.90;95.10;;;;;;5024912;28;20028;-47
2021/11/30 11:44:19;;;;;;;1.67;0.95;;;7.90;95.20;;;;;;5010757;28;20030;-47
2021/11/30 11:46:48;;;;;;;0.90;0.75;;;7.90;95.20;;;;;;5026522;28;20484;-48
2021/11/30 11:49:19;;;;;;;2.03;0.98;;;7.90;95.20;;;;;;5019979;28;20042;-47
2021/11/30 11:51:47;;;;;;;2.35;0.93;;;7.90;95.30;;;;;;5021730;28;20100;-48
2021/11/30 11:54:31;;;;;;;5.78;1.30;;;7.90;95.20;;;;;;5028737;28;20341;-47
2021/11/30 11:56:58;;;;;;;1.85;0.70;;;7.90;95.20;;;;;;5023865;28;20022;-48
2021/11/30 11:59:29;;;;;;;0.40;0.40;;;7.90;95.20;;;;;;5017793;28;20115;-47
2021/11/30 12:02:16;;;;;;;0.80;0.80;;;7.90;95.20;;;;;;5014690;28;20099;-48
2021/11/30 12:04:44;;;;;;;0.40;0.40;;;7.90;95.30;;;;;;5029017;28;20118;-48
2021/11/30 12:07:10;;;;;;;3.20;0.60;;;7.90;95.30;;;;;;5026122;28;20028;-47
2021/11/30 12:09:37;;;;;;;0.50;0.40;;;7.90;95.30;;;;;;5027342;28;20033;-48
2021/11/30 12:12:08;;;;;;;0.22;0.22;;;7.90;95.30;;;;;;5023403;28;20068;-48
2021/11/30 12:14:37;;;;;;;2.55;1.23;;;7.90;95.40;;;;;;5038125;28;20456;-48
2021/11/30 12:17:18;;;;;;;0.60;0.60;;;7.90;95.40;;;;;;5021894;28;20578;-47
2021/11/30 12:19:48;;;;;;;5.30;1.17;;;7.90;95.40;;;;;;5018920;28;20034;-47
2021/11/30 12:22:52;;;;;;;0.40;0.40;;;7.90;95.70;;;;;;5014561;28;20510;-48
2021/11/30 12:25:43;;;;;;;1.67;0.60;;;7.90;95.40;;;;;;5011598;28;20044;-47
2021/11/30 12:28:11;;;;;;;0.30;0.30;;;7.90;95.40;;;;;;5015388;28;20061;-47
2021/11/30 12:30:47;;;;;;;0.38;0.38;;;7.90;95.40;;;;;;5021759;28;20437;-47
2021/11/30 12:33:20;;;;;;;2.35;0.95;;;7.90;95.40;;;;;;5021733;28;20034;-47
2021/11/30 12:36:04;;;;;;;1.08;0.93;;;7.90;95.40;;;;;;5014526;28;20041;-48
2021/11/30 12:38:40;;;;;;;0.50;0.50;;;7.90;95.40;;;;;;5019520;28;20022;-48
2021/11/30 12:41:28;;;;;;;1.83;0.65;;;7.90;95.40;;;;;;5018091;28;20026;-48
2021/11/30 12:44:28;;;;;;;1.33;1.23;;;7.90;95.40;;;;;;5021845;28;20025;-48
2021/11/30 12:46:56;;;;;;;1.55;0.70;;;7.90;95.80;;;;;;5011936;28;20052;-47
2021/11/30 12:49:28;;;;;;;1.02;0.93;;;7.90;95.50;;;;;;5014984;28;20026;-48
2021/11/30 12:52:04;;;;;;;0.43;0.40;;;7.90;95.50;;;;;;5020401;28;20497;-48
2021/11/30 12:54:29;;;;;;;1.50;0.70;;;7.90;95.50;;;;;;5019557;28;20044;-47
2021/11/30 12:56:58;;;;;;;0.40;0.40;;;7.90;95.60;;;;;;5018124;28;20049;-48
2021/11/30 12:59:41;;;;;;;1.67;0.85;;;7.90;95.60;;;;;;5023926;28;20029;-48
2021/11/30 13:02:17;;;;;;;1.70;0.65;;;7.90;95.60;;;;;;5020981;28;20096;-48
2021/11/30 13:04:43;;;;;;;1.45;1.15;;;7.90;95.70;;;;;;5004070;28;20029;-48
2021/11/30 13:07:16;;;;;;;4.45;1.08;;;7.90;95.60;;;;;;5022156;28;20022;-47
2021/11/30 13:09:55;;;;;;;0.70;0.50;;;7.90;95.60;;;;;;5022849;28;20072;-48
2021/11/30 13:12:24;;;;;;;0.63;0.63;;;7.90;95.70;;;;;;5022698;28;20022;-48